createdAt,value
2022-08-07T00:11:54.303Z,14
2022-08-07T00:13:01.972Z,14
2022-08-07T00:16:11.970Z,14
2022-08-07T00:18:18.677Z,15
2022-08-07T00:20:00.730Z,15
2022-08-07T00:23:35.764Z,15
2022-08-07T00:24:42.279Z,15
2022-08-07T00:25:52.601Z,15
2022-08-07T00:28:11.034Z,15
2022-08-07T00:29:15.922Z,14
2022-08-07T00:30:27.832Z,14
2022-08-07T00:31:37.252Z,14
2022-08-07T00:32:55.058Z,15
2022-08-07T00:33:57.416Z,16
2022-08-07T00:34:59.840Z,15
2022-08-07T00:36:02.755Z,15
2022-08-07T00:37:04.993Z,14
2022-08-07T00:38:11.416Z,14
2022-08-07T00:39:34.324Z,15
2022-08-07T00:40:56.545Z,15
2022-08-07T00:42:01.562Z,15
2022-08-07T00:43:09.563Z,15
2022-08-07T00:45:06.746Z,15
2022-08-07T00:46:18.302Z,15
2022-08-07T00:48:08.551Z,15
2022-08-07T00:49:24.571Z,15
2022-08-07T00:51:57.853Z,15
2022-08-07T00:53:00.898Z,17
2022-08-07T00:54:02.302Z,17
2022-08-07T00:55:04.553Z,17
2022-08-07T00:57:07.632Z,17
2022-08-07T00:58:12.572Z,17
2022-08-07T00:59:15.168Z,17
2022-08-07T01:00:35.805Z,17
2022-08-07T01:01:41.432Z,18
2022-08-07T01:02:46.337Z,17
2022-08-07T01:03:55.105Z,17
2022-08-07T01:05:02.369Z,17
2022-08-07T01:06:24.769Z,17
2022-08-07T01:07:27.439Z,17
2022-08-07T01:08:34.245Z,16
2022-08-07T01:10:05.598Z,16
2022-08-07T01:12:05.485Z,16
2022-08-07T01:13:34.260Z,16
2022-08-07T01:14:37.356Z,17
2022-08-07T01:16:01.357Z,17
2022-08-07T01:17:10.667Z,16
2022-08-07T01:18:17.244Z,15
2022-08-07T01:19:25.134Z,14
2022-08-07T01:20:30.748Z,13
2022-08-07T01:21:43.400Z,13
2022-08-07T01:23:00.904Z,11
2022-08-07T01:24:18.611Z,10
2022-08-07T01:25:40.169Z,9
2022-08-07T01:27:01.199Z,9
2022-08-07T01:28:02.193Z,10
2022-08-07T01:29:04.410Z,10
2022-08-07T01:30:08.381Z,10
2022-08-07T01:31:27.438Z,10
2022-08-07T01:32:49.325Z,10
2022-08-07T01:33:53.849Z,9
2022-08-07T01:34:58.507Z,9
2022-08-07T01:36:06.116Z,9
2022-08-07T01:37:18.944Z,9
2022-08-07T01:38:25.299Z,9
2022-08-07T01:39:39.871Z,8
2022-08-07T01:40:49.285Z,7
2022-08-07T01:42:07.745Z,6
2022-08-07T01:44:04.531Z,7
2022-08-07T01:45:09.947Z,7
2022-08-07T01:46:46.978Z,7
2022-08-07T01:48:16.818Z,7
2022-08-07T01:49:33.707Z,7
2022-08-07T01:50:38.017Z,6
2022-08-07T01:52:02.886Z,5
2022-08-07T01:53:11.204Z,5
2022-08-07T01:55:38.567Z,5
2022-08-07T01:56:40.442Z,5
2022-08-07T01:58:01.056Z,6
2022-08-07T01:59:46.780Z,6
2022-08-07T02:00:51.770Z,7
2022-08-07T02:03:11.529Z,7
2022-08-07T02:04:55.954Z,7
2022-08-07T02:06:00.111Z,7
2022-08-07T02:07:02.542Z,7
2022-08-07T02:08:09.380Z,8
2022-08-07T02:09:33.630Z,7
2022-08-07T02:11:00.868Z,7
2022-08-07T02:12:31.256Z,7
2022-08-07T02:13:56.968Z,7
2022-08-07T02:15:05.947Z,7
2022-08-07T02:16:11.782Z,6
2022-08-07T02:17:13.362Z,6
2022-08-07T02:18:37.342Z,6
2022-08-07T02:20:05.977Z,6
2022-08-07T02:21:25.242Z,6
2022-08-07T02:23:09.179Z,6
2022-08-07T02:24:29.273Z,6
2022-08-07T02:26:11.189Z,7
2022-08-07T02:27:41.081Z,7
2022-08-07T02:28:55.480Z,8
2022-08-07T02:29:58.067Z,8
2022-08-07T02:31:10.393Z,8
2022-08-07T02:32:33.228Z,8
2022-08-07T02:34:17.405Z,8
2022-08-07T02:36:27.523Z,7
2022-08-07T02:37:35.999Z,7
2022-08-07T02:38:50.732Z,7
2022-08-07T02:40:02.611Z,6
2022-08-07T02:41:38.577Z,6
2022-08-07T02:42:57.603Z,6
2022-08-07T02:44:00.929Z,6
2022-08-07T02:45:07.185Z,6
2022-08-07T02:47:05.373Z,6
2022-08-07T02:48:19.437Z,6
2022-08-07T02:49:28.557Z,7
2022-08-07T02:51:03.710Z,7
2022-08-07T02:52:14.520Z,7
2022-08-07T02:53:34.114Z,6
2022-08-07T02:54:46.097Z,6
2022-08-07T02:56:02.115Z,6
2022-08-07T02:57:23.032Z,6
2022-08-07T02:58:39.718Z,5
2022-08-07T02:59:54.766Z,6
2022-08-07T03:01:18.520Z,6
2022-08-07T03:02:41.823Z,6
2022-08-07T03:03:58.580Z,6
2022-08-07T03:05:20.451Z,5
2022-08-07T03:06:32.988Z,5
2022-08-07T03:07:42.994Z,5
2022-08-07T03:09:13.193Z,5
2022-08-07T03:10:53.884Z,5
2022-08-07T03:12:02.663Z,5
2022-08-07T03:13:04.527Z,5
2022-08-07T03:14:10.496Z,6
2022-08-07T03:15:12.083Z,7
2022-08-07T03:16:59.866Z,6
2022-08-07T03:18:09.311Z,6
2022-08-07T03:19:36.760Z,6
2022-08-07T03:20:39.577Z,6
2022-08-07T03:21:50.717Z,6
2022-08-07T03:22:52.159Z,6
2022-08-07T03:24:18.760Z,6
2022-08-07T03:25:32.392Z,6
2022-08-07T03:26:43.029Z,6
2022-08-07T03:28:09.315Z,6
2022-08-07T03:29:46.205Z,5
2022-08-07T03:30:54.601Z,4
2022-08-07T03:31:56.704Z,4
2022-08-07T03:33:00.821Z,4
2022-08-07T03:34:10.442Z,5
2022-08-07T03:35:38.095Z,5
2022-08-07T03:36:52.796Z,5
2022-08-07T03:37:59.906Z,7
2022-08-07T03:39:05.335Z,7
2022-08-07T03:40:14.754Z,7
2022-08-07T03:41:41.945Z,7
2022-08-07T03:42:55.122Z,7
2022-08-07T03:43:57.659Z,6
2022-08-07T03:45:03.030Z,7
2022-08-07T03:46:10.291Z,6
2022-08-07T03:47:45.206Z,5
2022-08-07T03:49:01.958Z,5
2022-08-07T03:50:04.744Z,5
2022-08-07T03:51:14.188Z,5
2022-08-07T03:53:02.358Z,5
2022-08-07T03:54:33.533Z,5
2022-08-07T03:56:08.959Z,5
2022-08-07T03:58:32.852Z,5
2022-08-07T04:00:17.250Z,5
2022-08-07T04:01:43.211Z,5
2022-08-07T04:02:49.406Z,5
2022-08-07T04:03:57.805Z,6
2022-08-07T04:05:07.182Z,5
2022-08-07T04:06:36.459Z,5
2022-08-07T04:07:42.586Z,5
2022-08-07T04:08:53.412Z,5
2022-08-07T04:09:58.218Z,5
2022-08-07T04:12:20.949Z,5
2022-08-07T04:13:30.248Z,6
2022-08-07T04:15:49.826Z,6
2022-08-07T04:16:58.091Z,6
2022-08-07T04:18:31.480Z,6
2022-08-07T04:20:19.542Z,7
2022-08-07T04:21:21.423Z,7
2022-08-07T04:22:34.031Z,7
2022-08-07T04:23:43.139Z,6
2022-08-07T04:25:30.732Z,6
2022-08-07T04:26:43.903Z,6
2022-08-07T04:27:47.925Z,5
2022-08-07T04:29:04.337Z,6
2022-08-07T04:30:21.118Z,6
2022-08-07T04:32:02.765Z,6
2022-08-07T04:33:13.766Z,6
2022-08-07T04:34:23.995Z,6
2022-08-07T04:35:40.464Z,5
2022-08-07T04:36:43.190Z,5
2022-08-07T04:37:52.997Z,5
2022-08-07T04:39:11.940Z,5
2022-08-07T04:40:43.811Z,4
2022-08-07T04:41:58.658Z,5
2022-08-07T04:43:01.430Z,5
2022-08-07T04:44:18.223Z,6
2022-08-07T04:45:44.734Z,6
2022-08-07T04:47:08.426Z,6
2022-08-07T04:48:11.016Z,6
2022-08-07T04:49:18.171Z,6
2022-08-07T04:50:39.813Z,6
2022-08-07T04:51:41.080Z,6
2022-08-07T04:52:51.482Z,6
2022-08-07T04:54:02.101Z,7
2022-08-07T04:55:15.101Z,6
2022-08-07T05:01:31.924Z,7
2022-08-07T05:02:35.452Z,7
2022-08-07T05:04:00.899Z,6
2022-08-07T05:05:52.353Z,7
2022-08-07T05:07:00.988Z,6
2022-08-07T05:09:00.389Z,6
2022-08-07T05:10:10.990Z,6
2022-08-07T05:11:19.159Z,6
2022-08-07T05:13:10.222Z,5
2022-08-07T05:16:12.968Z,5
2022-08-07T05:17:50.067Z,5
2022-08-07T05:18:57.820Z,5
2022-08-07T05:20:05.384Z,5
2022-08-07T05:21:12.991Z,6
2022-08-07T05:23:05.210Z,6
2022-08-07T05:24:19.468Z,6
2022-08-07T05:26:11.383Z,6
2022-08-07T05:28:02.277Z,6
2022-08-07T05:29:38.943Z,6
2022-08-07T05:30:58.241Z,6
2022-08-07T05:32:05.142Z,6
2022-08-07T05:33:12.678Z,6
2022-08-07T05:34:26.146Z,5
2022-08-07T05:35:42.420Z,6
2022-08-07T05:36:52.627Z,5
2022-08-07T05:38:08.533Z,6
2022-08-07T05:40:04.866Z,6
2022-08-07T05:41:22.198Z,6
2022-08-07T05:43:10.490Z,7
2022-08-07T05:45:04.559Z,6
2022-08-07T05:46:58.250Z,6
2022-08-07T05:49:08.985Z,6
2022-08-07T05:50:22.295Z,6
2022-08-07T05:51:24.131Z,5
2022-08-07T05:52:40.115Z,5
2022-08-07T05:54:08.845Z,6
2022-08-07T05:56:14.607Z,6
2022-08-07T05:57:19.909Z,7
2022-08-07T05:58:22.054Z,7
2022-08-07T05:59:56.257Z,6
2022-08-07T06:01:04.922Z,6
2022-08-07T06:02:28.579Z,5
2022-08-07T06:03:54.159Z,5
2022-08-07T06:05:33.913Z,6
2022-08-07T06:07:04.513Z,6
2022-08-07T06:08:15.108Z,6
2022-08-07T06:10:04.845Z,7
2022-08-07T06:11:16.646Z,7
2022-08-07T06:12:27.758Z,7
2022-08-07T06:14:11.287Z,8
2022-08-07T06:15:39.548Z,8
2022-08-07T06:16:55.760Z,8
2022-08-07T06:18:07.870Z,7
2022-08-07T06:19:17.746Z,8
2022-08-07T06:22:12.188Z,7
2022-08-07T06:24:38.943Z,7
2022-08-07T06:26:04.360Z,7
2022-08-07T06:27:13.311Z,8
2022-08-07T06:29:06.489Z,8
2022-08-07T06:30:08.646Z,8
2022-08-07T06:31:53.543Z,7
2022-08-07T06:32:54.557Z,7
2022-08-07T06:34:00.265Z,8
2022-08-07T06:35:02.251Z,7
2022-08-07T06:36:35.108Z,8
2022-08-07T06:37:53.593Z,8
2022-08-07T06:40:12.772Z,7
2022-08-07T06:41:47.713Z,7
2022-08-07T06:43:07.242Z,7
2022-08-07T06:44:24.564Z,8
2022-08-07T06:45:40.887Z,8
2022-08-07T06:46:53.100Z,9
2022-08-07T06:48:24.626Z,8
2022-08-07T06:49:29.050Z,8
2022-08-07T06:50:30.655Z,8
2022-08-07T06:51:33.658Z,9
2022-08-07T06:52:52.832Z,9
2022-08-07T06:55:27.577Z,8
2022-08-07T06:57:16.105Z,8
2022-08-07T06:58:39.451Z,8
2022-08-07T07:01:21.610Z,9
2022-08-07T07:02:54.654Z,9
2022-08-07T07:04:28.784Z,9
2022-08-07T07:06:04.551Z,8
2022-08-07T07:07:19.545Z,8
2022-08-07T07:09:30.815Z,8
2022-08-07T07:10:47.474Z,8
2022-08-07T07:13:40.770Z,8
2022-08-07T07:15:24.280Z,8
2022-08-07T07:16:45.319Z,8
2022-08-07T07:17:59.504Z,9
2022-08-07T07:19:54.977Z,9
2022-08-07T07:21:00.156Z,9
2022-08-07T07:22:34.259Z,9
2022-08-07T07:26:31.849Z,9
2022-08-07T07:27:55.950Z,9
2022-08-07T07:31:40.047Z,10
2022-08-07T07:32:48.655Z,9
2022-08-07T07:33:56.792Z,9
2022-08-07T07:34:58.873Z,8
2022-08-07T07:36:12.966Z,9
2022-08-07T07:37:45.589Z,9
2022-08-07T07:39:11.781Z,9
2022-08-07T07:40:15.608Z,9
2022-08-07T07:41:17.079Z,9
2022-08-07T07:42:20.867Z,10
2022-08-07T07:43:48.245Z,9
2022-08-07T07:46:36.426Z,10
2022-08-07T07:48:35.472Z,11
2022-08-07T07:50:32.117Z,11
2022-08-07T07:51:57.794Z,12
2022-08-07T07:53:01.109Z,11
2022-08-07T07:54:02.938Z,12
2022-08-07T07:55:04.866Z,13
2022-08-07T07:56:06.827Z,14
2022-08-07T07:57:11.573Z,13
2022-08-07T07:58:13.870Z,13
2022-08-07T07:59:51.834Z,12
2022-08-07T08:00:58.705Z,12
2022-08-07T08:04:06.808Z,13
2022-08-07T08:05:18.185Z,12
2022-08-07T08:06:56.301Z,12
2022-08-07T08:08:15.986Z,13
2022-08-07T08:09:51.880Z,12
2022-08-07T08:11:16.686Z,13
2022-08-07T08:13:07.089Z,14
2022-08-07T08:14:19.255Z,13
2022-08-07T08:15:27.429Z,14
2022-08-07T08:17:14.034Z,14
2022-08-07T08:20:16.750Z,14
2022-08-07T08:21:55.633Z,14
2022-08-07T08:23:11.441Z,13
2022-08-07T08:24:36.683Z,12
2022-08-07T08:26:50.263Z,12
2022-08-07T08:27:56.864Z,13
2022-08-07T08:29:05.055Z,13
2022-08-07T08:30:09.259Z,12
2022-08-07T08:31:23.038Z,11
2022-08-07T08:33:41.701Z,10
2022-08-07T08:34:58.645Z,11
2022-08-07T08:36:00.522Z,11
2022-08-07T08:37:09.830Z,11
2022-08-07T08:39:15.586Z,11
2022-08-07T08:40:28.510Z,12
2022-08-07T08:41:56.664Z,12
2022-08-07T08:43:01.699Z,12
2022-08-07T08:44:03.226Z,11
2022-08-07T08:45:06.904Z,10
2022-08-07T08:46:16.592Z,10
2022-08-07T08:47:28.731Z,11
2022-08-07T08:48:55.841Z,11
2022-08-07T08:50:02.898Z,11
2022-08-07T08:51:14.435Z,10
2022-08-07T08:53:19.795Z,11
2022-08-07T08:54:20.832Z,11
2022-08-07T08:55:54.089Z,12
2022-08-07T08:57:00.857Z,13
2022-08-07T08:58:04.157Z,12
2022-08-07T08:59:29.962Z,12
2022-08-07T09:00:51.774Z,12
2022-08-07T09:02:01.187Z,11
2022-08-07T09:03:09.936Z,12
2022-08-07T09:04:47.813Z,12
2022-08-07T09:05:49.077Z,12
2022-08-07T09:06:50.061Z,12
2022-08-07T09:07:57.866Z,12
2022-08-07T09:09:00.618Z,12
2022-08-07T09:10:37.307Z,12
2022-08-07T09:11:51.342Z,12
2022-08-07T09:13:35.300Z,12
2022-08-07T09:14:41.993Z,11
2022-08-07T09:17:33.890Z,11
2022-08-07T09:19:44.966Z,11
2022-08-07T09:21:00.684Z,12
2022-08-07T09:22:23.325Z,12
2022-08-07T09:26:28.581Z,12
2022-08-07T09:27:31.931Z,13
2022-08-07T09:30:00.541Z,13
2022-08-07T09:31:11.105Z,12
2022-08-07T09:32:20.979Z,12
2022-08-07T09:33:24.368Z,12
2022-08-07T09:35:04.530Z,11
2022-08-07T09:37:12.170Z,11
2022-08-07T09:38:15.385Z,11
2022-08-07T09:39:18.276Z,11
2022-08-07T09:41:03.508Z,11
2022-08-07T09:42:05.943Z,12
2022-08-07T09:43:40.397Z,11
2022-08-07T09:49:59.895Z,12
2022-08-07T09:52:11.205Z,13
2022-08-07T09:53:40.680Z,14
2022-08-07T09:55:04.460Z,16
2022-08-07T09:56:39.229Z,17
2022-08-07T09:57:47.462Z,17
2022-08-07T09:58:51.029Z,18
2022-08-07T10:00:00.445Z,16
2022-08-07T10:01:08.358Z,17
2022-08-07T10:02:56.470Z,16
2022-08-07T10:04:02.961Z,16
2022-08-07T10:05:59.306Z,16
2022-08-07T10:07:26.349Z,16
2022-08-07T10:08:58.511Z,17
2022-08-07T10:10:02.751Z,17
2022-08-07T10:11:16.623Z,19
2022-08-07T10:13:55.745Z,19
2022-08-07T10:15:06.746Z,18
2022-08-07T10:16:19.904Z,17
2022-08-07T10:17:25.162Z,16
2022-08-07T10:19:03.663Z,15
2022-08-07T10:20:13.208Z,14
2022-08-07T10:21:51.026Z,16
2022-08-07T10:24:04.311Z,18
2022-08-07T10:25:22.701Z,19
2022-08-07T10:26:51.519Z,20
2022-08-07T10:27:56.785Z,19
2022-08-07T10:29:02.821Z,18
2022-08-07T10:30:06.274Z,16
2022-08-07T10:31:13.609Z,16
2022-08-07T10:32:36.628Z,17
2022-08-07T10:34:05.217Z,16
2022-08-07T10:35:53.358Z,16
2022-08-07T10:37:48.825Z,16
2022-08-07T10:39:57.799Z,14
2022-08-07T10:41:46.168Z,14
2022-08-07T10:43:37.291Z,15
2022-08-07T10:44:45.324Z,14
2022-08-07T10:45:57.926Z,14
2022-08-07T10:47:01.943Z,13
2022-08-07T10:48:20.286Z,12
2022-08-07T10:49:45.494Z,12
2022-08-07T10:50:55.620Z,13
2022-08-07T10:52:13.595Z,13
2022-08-07T10:53:21.331Z,13
2022-08-07T10:54:27.358Z,13
2022-08-07T10:55:37.118Z,14
2022-08-07T10:56:40.510Z,13
2022-08-07T10:57:44.488Z,14
2022-08-07T10:59:02.305Z,14
2022-08-07T11:00:03.675Z,13
2022-08-07T11:01:11.474Z,13
2022-08-07T11:02:27.471Z,13
2022-08-07T11:03:52.905Z,12
2022-08-07T11:05:49.382Z,12
2022-08-07T11:06:55.767Z,13
2022-08-07T11:08:01.468Z,13
2022-08-07T11:09:11.434Z,13
2022-08-07T11:11:14.238Z,13
2022-08-07T11:12:31.396Z,13
2022-08-07T11:13:42.642Z,13
2022-08-07T11:16:01.901Z,13
2022-08-07T11:17:11.098Z,13
2022-08-07T11:18:50.675Z,13
2022-08-07T11:19:53.222Z,14
2022-08-07T11:20:58.288Z,14
2022-08-07T11:22:00.126Z,14
2022-08-07T11:23:04.263Z,14
2022-08-07T11:24:12.506Z,15
2022-08-07T11:25:16.130Z,15
2022-08-07T11:26:24.014Z,15
2022-08-07T11:27:33.646Z,16
2022-08-07T11:29:13.039Z,15
2022-08-07T11:31:45.037Z,14
2022-08-07T11:32:46.799Z,14
2022-08-07T11:34:00.026Z,14
2022-08-07T11:35:04.642Z,13
2022-08-07T11:36:10.746Z,13
2022-08-07T11:37:24.298Z,12
2022-08-07T11:39:21.626Z,12
2022-08-07T11:41:02.085Z,13
2022-08-07T11:42:06.064Z,13
2022-08-07T11:43:41.443Z,14
2022-08-07T11:45:20.410Z,14
2022-08-07T11:46:40.812Z,14
2022-08-07T11:47:53.746Z,14
2022-08-07T11:49:50.899Z,14
2022-08-07T11:51:41.025Z,14
2022-08-07T11:52:47.728Z,14
2022-08-07T11:54:00.486Z,15
2022-08-07T11:55:13.257Z,15
2022-08-07T11:57:58.262Z,16
2022-08-07T12:00:07.714Z,16
2022-08-07T12:01:58.883Z,16
2022-08-07T12:03:03.039Z,16
2022-08-07T12:04:46.987Z,16
2022-08-07T12:05:58.301Z,17
2022-08-07T12:08:04.365Z,17
2022-08-07T12:09:35.043Z,17
2022-08-07T12:10:41.574Z,16
2022-08-07T12:11:43.315Z,16
2022-08-07T12:13:17.004Z,17
2022-08-07T12:14:51.525Z,17
2022-08-07T12:16:05.554Z,18
2022-08-07T12:17:33.654Z,18
2022-08-07T12:18:39.017Z,16
2022-08-07T12:19:56.924Z,17
2022-08-07T12:21:56.116Z,16
2022-08-07T12:24:12.526Z,17
2022-08-07T12:26:00.577Z,16
2022-08-07T12:28:05.891Z,16
2022-08-07T12:29:15.320Z,16
2022-08-07T12:30:41.182Z,15
2022-08-07T12:32:02.344Z,16
2022-08-07T12:33:18.653Z,15
2022-08-07T12:35:13.944Z,15
2022-08-07T12:36:14.939Z,15
2022-08-07T12:37:23.206Z,15
2022-08-07T12:39:58.186Z,15
2022-08-07T12:41:02.237Z,15
2022-08-07T12:42:12.038Z,15
2022-08-07T12:43:50.787Z,15
2022-08-07T12:45:18.087Z,15
2022-08-07T12:46:26.151Z,14
2022-08-07T12:47:40.793Z,14
2022-08-07T12:48:52.287Z,13
2022-08-07T12:50:04.779Z,13
2022-08-07T12:52:11.943Z,13
2022-08-07T12:53:21.984Z,14
2022-08-07T12:55:40.878Z,15
2022-08-07T12:57:12.668Z,16
2022-08-07T12:59:03.001Z,16
2022-08-07T13:00:31.399Z,17
2022-08-07T13:02:59.787Z,15
2022-08-07T13:04:13.733Z,15
2022-08-07T13:06:04.185Z,15
2022-08-07T13:08:11.758Z,15
2022-08-07T13:10:17.712Z,15
2022-08-07T13:12:02.897Z,15
2022-08-07T13:13:47.790Z,14
2022-08-07T13:14:55.230Z,15
2022-08-07T13:15:59.406Z,14
2022-08-07T13:17:05.587Z,15
2022-08-07T13:18:10.866Z,14
2022-08-07T13:19:35.350Z,14
2022-08-07T13:20:53.776Z,14
2022-08-07T13:22:19.621Z,13
2022-08-07T13:24:00.200Z,14
2022-08-07T13:25:05.985Z,13
2022-08-07T13:26:07.996Z,12
2022-08-07T13:27:33.494Z,13
2022-08-07T13:29:27.483Z,13
2022-08-07T13:30:48.803Z,13
2022-08-07T13:32:31.464Z,14
2022-08-07T13:34:14.824Z,14
2022-08-07T13:35:59.988Z,13
2022-08-07T13:37:20.214Z,13
2022-08-07T13:38:24.164Z,13
2022-08-07T13:39:28.780Z,13
2022-08-07T13:41:49.602Z,14
2022-08-07T13:42:56.942Z,13
2022-08-07T13:43:59.538Z,13
2022-08-07T13:46:06.272Z,13
2022-08-07T13:48:05.613Z,13
2022-08-07T13:50:31.948Z,13
2022-08-07T13:53:36.116Z,13
2022-08-07T13:55:04.855Z,13
2022-08-07T13:56:19.464Z,14
2022-08-07T13:58:02.256Z,15
2022-08-07T13:59:05.450Z,15
2022-08-07T14:00:25.983Z,15
2022-08-07T14:01:29.729Z,15
2022-08-07T14:03:06.405Z,15
2022-08-07T14:04:08.532Z,15
2022-08-07T14:05:10.943Z,16
2022-08-07T14:06:15.749Z,15
2022-08-07T14:07:19.323Z,15
2022-08-07T14:08:24.811Z,15
2022-08-07T14:10:03.185Z,15
2022-08-07T14:11:52.999Z,15
2022-08-07T14:13:21.236Z,15
2022-08-07T14:14:35.755Z,14
2022-08-07T14:15:37.330Z,14
2022-08-07T14:16:45.040Z,14
2022-08-07T14:18:13.510Z,14
2022-08-07T14:20:39.484Z,13
2022-08-07T14:22:02.829Z,13
2022-08-07T14:23:59.686Z,13
2022-08-07T14:25:04.504Z,13
2022-08-07T14:26:28.533Z,13
2022-08-07T14:28:11.984Z,13
2022-08-07T14:30:03.098Z,13
2022-08-07T14:31:42.625Z,13
2022-08-07T14:33:00.163Z,14
2022-08-07T14:34:08.051Z,14
2022-08-07T14:35:34.457Z,14
2022-08-07T15:53:02.411Z,13
2022-08-07T15:54:11.853Z,12
2022-08-07T15:55:13.239Z,11
2022-08-07T15:56:15.127Z,11
2022-08-07T15:57:28.430Z,11
2022-08-07T15:58:52.244Z,11
2022-08-07T15:59:54.745Z,10
2022-08-07T16:01:07.676Z,10
2022-08-07T16:02:10.304Z,10
2022-08-07T16:03:46.802Z,10
2022-08-07T16:04:59.463Z,11
2022-08-07T16:06:16.259Z,11
2022-08-07T16:07:31.947Z,11
2022-08-07T16:09:42.558Z,11
2022-08-07T16:10:47.133Z,11
2022-08-07T16:11:51.613Z,11
2022-08-07T16:13:01.468Z,11
2022-08-07T16:15:04.087Z,10
2022-08-07T16:17:13.063Z,10
2022-08-07T16:19:09.491Z,9
2022-08-07T16:20:33.287Z,9
2022-08-07T16:21:53.477Z,9
2022-08-07T16:23:58.399Z,9
2022-08-07T16:25:00.592Z,9
2022-08-07T16:26:10.007Z,9
2022-08-07T16:27:39.857Z,9
2022-08-07T16:29:19.235Z,9
2022-08-07T16:31:50.564Z,9
2022-08-07T16:34:00.764Z,9
2022-08-07T16:35:52.199Z,10
2022-08-07T16:38:05.188Z,11
2022-08-07T16:39:14.868Z,11
2022-08-07T16:40:57.421Z,11
2022-08-07T16:42:10.399Z,11
2022-08-07T16:43:23.047Z,10
2022-08-07T16:48:37.738Z,10
2022-08-07T16:53:55.987Z,9
2022-08-07T16:55:20.532Z,9
2022-08-07T16:56:22.323Z,10
2022-08-07T16:57:28.914Z,10
2022-08-07T16:59:17.209Z,10
2022-08-07T17:00:29.699Z,10
2022-08-07T17:01:34.207Z,10
2022-08-07T17:02:51.941Z,10
2022-08-07T17:04:06.562Z,9
2022-08-07T17:06:02.803Z,9
2022-08-07T17:08:04.614Z,8
2022-08-07T17:09:15.882Z,9
2022-08-07T17:11:50.792Z,9
2022-08-07T17:14:17.677Z,9
2022-08-07T17:15:43.587Z,9
2022-08-07T17:16:55.684Z,8
2022-08-07T17:17:58.660Z,8
2022-08-07T17:19:02.688Z,8
2022-08-07T17:21:22.593Z,9
2022-08-07T17:22:30.364Z,9
2022-08-07T17:23:43.625Z,9
2022-08-07T17:24:48.085Z,10
2022-08-07T17:25:52.978Z,10
2022-08-07T17:26:54.210Z,10
2022-08-07T17:27:58.101Z,10
2022-08-07T17:29:04.614Z,10
2022-08-07T17:30:13.321Z,10
2022-08-07T17:31:29.823Z,9
2022-08-07T17:32:35.192Z,9
2022-08-07T17:34:10.625Z,9
2022-08-07T17:36:58.184Z,9
2022-08-07T17:39:52.916Z,9
2022-08-07T17:42:01.349Z,9
2022-08-07T17:43:15.157Z,9
2022-08-07T17:45:42.185Z,9
2022-08-07T17:46:47.078Z,10
2022-08-07T17:47:56.470Z,9
2022-08-07T17:49:00.391Z,9
2022-08-07T17:50:14.347Z,9
2022-08-07T17:51:21.435Z,9
2022-08-07T17:53:03.699Z,10
2022-08-07T17:54:55.859Z,10
2022-08-07T17:56:01.477Z,11
2022-08-07T17:57:32.143Z,10
2022-08-07T17:59:11.180Z,11
2022-08-07T18:00:27.685Z,11
2022-08-07T18:01:51.741Z,11
2022-08-07T18:02:59.950Z,11
2022-08-07T18:04:19.073Z,11
2022-08-07T18:06:01.275Z,11
2022-08-07T18:07:44.897Z,11
2022-08-07T18:09:01.685Z,12
2022-08-07T18:10:29.242Z,12
2022-08-07T18:12:08.519Z,12
2022-08-07T18:13:40.618Z,13
2022-08-07T18:14:44.861Z,13
2022-08-07T18:15:51.911Z,12
2022-08-07T18:16:57.967Z,13
2022-08-07T18:18:36.751Z,13
2022-08-07T18:23:41.034Z,13
2022-08-07T18:25:00.048Z,13
2022-08-07T18:26:42.257Z,14
2022-08-07T18:27:44.803Z,14
2022-08-07T18:28:58.048Z,13
2022-08-07T18:30:05.118Z,14
2022-08-07T18:31:49.783Z,13
2022-08-07T18:32:52.265Z,13
2022-08-07T18:33:54.677Z,14
2022-08-07T18:35:01.324Z,14
2022-08-07T18:36:03.349Z,14
2022-08-07T18:37:09.949Z,13
2022-08-07T18:42:00.191Z,14
2022-08-07T18:43:14.894Z,14
2022-08-07T18:45:40.699Z,15
2022-08-07T18:47:41.862Z,17
2022-08-07T18:50:06.148Z,16
2022-08-07T18:52:34.379Z,17
2022-08-07T18:54:28.092Z,18
2022-08-07T18:55:41.488Z,19
2022-08-07T18:57:29.970Z,21
2022-08-07T18:58:41.529Z,23
2022-08-07T18:59:46.588Z,22
2022-08-07T19:02:17.892Z,23
2022-08-07T19:03:49.576Z,22
2022-08-07T19:05:10.522Z,19
2022-08-07T19:06:32.402Z,17
2022-08-07T19:07:35.595Z,16
2022-08-07T19:09:09.215Z,16
2022-08-07T19:11:00.112Z,16
2022-08-07T19:12:37.599Z,17
2022-08-07T19:14:26.221Z,17
2022-08-07T19:16:03.873Z,16
2022-08-07T19:19:07.306Z,15
2022-08-07T19:20:25.047Z,15
2022-08-07T19:21:42.990Z,14
2022-08-07T19:23:18.170Z,13
2022-08-07T19:25:05.395Z,13
2022-08-07T19:28:28.929Z,13
2022-08-07T19:33:46.514Z,12
2022-08-07T19:35:04.856Z,12
2022-08-07T19:36:08.643Z,11
2022-08-07T19:37:17.179Z,11
2022-08-07T19:38:59.944Z,11
2022-08-07T19:40:11.005Z,11
2022-08-07T19:42:05.491Z,11
2022-08-07T19:43:43.352Z,11
2022-08-07T19:46:01.351Z,11
2022-08-07T19:47:11.769Z,11
2022-08-07T19:48:18.602Z,10
2022-08-07T19:49:56.803Z,10
2022-08-07T19:52:00.441Z,10
2022-08-07T19:53:03.029Z,11
2022-08-07T19:55:58.509Z,11
2022-08-07T19:57:52.673Z,12
2022-08-07T19:59:18.501Z,12
2022-08-07T20:00:40.025Z,12
2022-08-07T20:01:58.016Z,11
2022-08-07T20:02:59.364Z,12
2022-08-07T20:04:03.560Z,11
2022-08-07T20:05:11.396Z,12
2022-08-07T20:06:14.258Z,12
2022-08-07T20:07:46.777Z,12
2022-08-07T20:08:59.540Z,12
2022-08-07T20:10:34.400Z,12
2022-08-07T20:12:23.188Z,12
2022-08-07T20:13:43.991Z,12
2022-08-07T20:14:53.827Z,12
2022-08-07T20:15:59.745Z,12
2022-08-07T20:17:03.592Z,12
2022-08-07T20:18:14.568Z,13
2022-08-07T20:19:47.768Z,12
2022-08-07T20:21:14.679Z,13
2022-08-07T20:22:52.799Z,13
2022-08-07T20:23:57.751Z,13
2022-08-07T20:25:02.212Z,12
2022-08-07T20:26:29.819Z,12
2022-08-07T20:27:58.749Z,10
2022-08-07T20:29:10.297Z,11
2022-08-07T20:31:04.774Z,10
2022-08-07T20:32:39.884Z,10
2022-08-07T20:33:44.523Z,10
2022-08-07T20:34:57.789Z,11
2022-08-07T20:36:03.272Z,11
2022-08-07T20:37:06.776Z,12
2022-08-07T20:38:09.558Z,12
2022-08-07T20:39:30.766Z,12
2022-08-07T20:41:51.670Z,12
2022-08-07T20:42:56.196Z,12
2022-08-07T20:43:57.662Z,13
2022-08-07T20:44:59.624Z,12
2022-08-07T20:46:25.343Z,12
2022-08-07T20:47:55.817Z,12
2022-08-07T20:49:54.839Z,13
2022-08-07T20:51:14.374Z,13
2022-08-07T20:52:50.880Z,13
2022-08-07T20:54:02.433Z,14
2022-08-07T20:55:35.904Z,14
2022-08-07T20:56:52.802Z,14
2022-08-07T20:58:02.833Z,14
2022-08-07T21:00:05.706Z,14
2022-08-07T21:01:19.278Z,14
2022-08-07T21:02:27.731Z,14
2022-08-07T21:03:33.352Z,14
2022-08-07T21:05:25.822Z,14
2022-08-07T21:07:04.208Z,14
2022-08-07T21:08:37.418Z,16
2022-08-07T21:11:40.464Z,19
2022-08-07T21:12:59.298Z,18
2022-08-07T21:14:16.986Z,19
2022-08-07T21:15:47.382Z,18
2022-08-07T21:18:04.150Z,17
2022-08-07T21:20:01.239Z,18
2022-08-07T21:21:19.169Z,16
2022-08-07T21:22:58.805Z,15
2022-08-07T21:24:26.466Z,15
2022-08-07T21:25:38.831Z,14
2022-08-07T21:27:06.803Z,14
2022-08-07T21:28:08.743Z,14
2022-08-07T21:29:52.961Z,14
2022-08-07T21:30:57.694Z,15
2022-08-07T21:32:42.222Z,14
2022-08-07T21:33:53.452Z,14
2022-08-07T21:34:55.826Z,14
2022-08-07T21:36:06.285Z,14
2022-08-07T21:37:57.581Z,14
2022-08-07T21:39:44.814Z,14
2022-08-07T21:40:58.641Z,14
2022-08-07T21:42:02.817Z,14
2022-08-07T21:43:56.467Z,14
2022-08-07T21:45:08.535Z,14
2022-08-07T21:47:34.625Z,14
2022-08-07T21:48:56.045Z,14
2022-08-07T21:50:00.778Z,14
2022-08-07T21:51:05.680Z,14
2022-08-07T21:52:29.238Z,14
2022-08-07T21:53:36.963Z,14
2022-08-07T21:54:55.880Z,16
2022-08-07T21:56:00.818Z,16
2022-08-07T21:57:03.214Z,18
2022-08-07T21:58:18.392Z,20
2022-08-07T21:59:36.369Z,20
2022-08-07T22:02:07.850Z,20
2022-08-07T22:03:17.455Z,17
2022-08-07T22:04:33.432Z,16
2022-08-07T22:05:45.032Z,15
2022-08-07T22:06:52.960Z,15
2022-08-07T22:09:34.869Z,14
2022-08-07T22:10:56.248Z,14
2022-08-07T22:12:06.021Z,14
2022-08-07T22:13:14.918Z,14
2022-08-07T22:14:23.595Z,14
2022-08-07T22:16:35.606Z,13
2022-08-07T22:18:04.452Z,14
2022-08-07T22:19:29.401Z,14
2022-08-07T22:21:25.683Z,15
2022-08-07T22:23:41.524Z,16
2022-08-07T22:25:17.125Z,15
2022-08-07T22:26:41.274Z,15
2022-08-07T22:28:07.242Z,14
2022-08-07T22:29:33.673Z,14
2022-08-07T22:30:52.000Z,15
2022-08-07T22:31:59.845Z,18
2022-08-07T22:33:09.253Z,23
2022-08-07T22:34:13.005Z,24
2022-08-07T22:35:39.671Z,25
2022-08-07T22:36:52.478Z,24
2022-08-07T22:38:01.585Z,20
2022-08-07T22:39:06.532Z,19
2022-08-07T22:40:09.098Z,17
2022-08-07T22:41:15.243Z,15
2022-08-07T22:43:31.416Z,15
2022-08-07T22:44:35.812Z,14
2022-08-07T22:46:22.015Z,15
2022-08-07T22:48:31.948Z,15
2022-08-07T22:50:20.526Z,15